sensor_id;sensor_type;location;lat;lon;timestamp;pressure;altitude;pressure_sealevel;temperature;humidity
20105;BME280;10212;42.714;23.310;2024-03-08T00:04:32;95221.50;;;4.06;100.00
20105;BME280;10212;42.714;23.310;2024-03-08T00:14:33;95218.59;;;4.09;100.00
20105;BME280;10212;42.714;23.310;2024-03-08T00:24:33;95208.53;;;3.73;100.00
20105;BME280;10212;42.714;23.310;2024-03-08T00:34:37;95201.00;;;3.45;100.00
20105;BME280;10212;42.714;23.310;2024-03-08T00:44:37;95207.09;;;3.35;100.00
20105;BME280;10212;42.714;23.310;2024-03-08T00:54:38;95194.28;;;3.17;100.00
20105;BME280;10212;42.714;23.310;2024-03-08T01:04:38;95186.19;;;3.12;100.00
20105;BME280;10212;42.714;23.310;2024-03-08T01:14:39;95181.84;;;3.12;100.00
20105;BME280;10212;42.714;23.310;2024-03-08T01:24:39;95173.84;;;3.24;100.00
20105;BME280;10212;42.714;23.310;2024-03-08T01:34:39;95161.94;;;3.23;100.00
20105;BME280;10212;42.714;23.310;2024-03-08T01:44:40;95157.09;;;3.20;100.00
20105;BME280;10212;42.714;23.310;2024-03-08T01:54:40;95144.88;;;3.22;100.00
20105;BME280;10212;42.714;23.310;2024-03-08T02:04:41;95145.09;;;3.45;100.00
20105;BME280;10212;42.714;23.310;2024-03-08T02:14:41;95148.75;;;3.34;100.00
20105;BME280;10212;42.714;23.310;2024-03-08T02:24:43;95157.63;;;3.40;100.00
20105;BME280;10212;42.714;23.310;2024-03-08T02:34:44;95164.53;;;3.31;100.00
20105;BME280;10212;42.714;23.310;2024-03-08T02:44:44;95162.94;;;3.30;100.00
20105;BME280;10212;42.714;23.310;2024-03-08T02:54:45;95171.00;;;3.35;100.00
20105;BME280;10212;42.714;23.310;2024-03-08T03:04:47;95167.28;;;3.30;100.00
20105;BME280;10212;42.714;23.310;2024-03-08T03:14:47;95184.66;;;3.28;99.11
20105;BME280;10212;42.714;23.310;2024-03-08T03:24:47;95187.69;;;3.23;98.84
20105;BME280;10212;42.714;23.310;2024-03-08T03:34:49;95185.63;;;2.92;95.86
20105;BME280;10212;42.714;23.310;2024-03-08T03:44:53;95195.63;;;2.95;97.79
20105;BME280;10212;42.714;23.310;2024-03-08T03:54:53;95212.50;;;2.97;97.71
20105;BME280;10212;42.714;23.310;2024-03-08T04:04:53;95218.66;;;2.96;99.75
20105;BME280;10212;42.714;23.310;2024-03-08T04:14:55;95226.53;;;2.95;100.00
20105;BME280;10212;42.714;23.310;2024-03-08T04:24:55;95237.53;;;3.05;100.00
20105;BME280;10212;42.714;23.310;2024-03-08T04:34:56;95247.59;;;2.90;100.00
20105;BME280;10212;42.714;23.310;2024-03-08T04:44:58;95251.41;;;2.86;100.00
20105;BME280;10212;42.714;23.310;2024-03-08T04:54:58;95258.28;;;2.77;100.00
20105;BME280;10212;42.714;23.310;2024-03-08T05:04:59;95258.63;;;2.82;100.00
20105;BME280;10212;42.714;23.310;2024-03-08T05:15:01;95271.16;;;2.77;100.00
20105;BME280;10212;42.714;23.310;2024-03-08T05:25:01;95285.38;;;2.81;100.00
20105;BME280;10212;42.714;23.310;2024-03-08T05:35:01;95309.31;;;3.00;100.00
20105;BME280;10212;42.714;23.310;2024-03-08T05:45:07;95315.00;;;2.85;100.00
20105;BME280;10212;42.714;23.310;2024-03-08T05:55:08;95332.19;;;3.03;100.00
20105;BME280;10212;42.714;23.310;2024-03-08T06:05:10;95337.13;;;3.15;100.00
20105;BME280;10212;42.714;23.310;2024-03-08T06:15:11;95342.03;;;3.26;100.00
20105;BME280;10212;42.714;23.310;2024-03-08T06:25:14;95354.38;;;3.41;100.00
20105;BME280;10212;42.714;23.310;2024-03-08T06:35:15;95355.72;;;3.27;100.00
20105;BME280;10212;42.714;23.310;2024-03-08T06:45:16;95354.72;;;3.46;100.00
20105;BME280;10212;42.714;23.310;2024-03-08T06:55:20;95367.13;;;3.69;100.00
20105;BME280;10212;42.714;23.310;2024-03-08T07:05:21;95366.97;;;4.05;98.36
20105;BME280;10212;42.714;23.310;2024-03-08T07:15:21;95379.28;;;4.20;97.23
20105;BME280;10212;42.714;23.310;2024-03-08T07:25:23;95387.03;;;4.20;96.48
20105;BME280;10212;42.714;23.310;2024-03-08T07:35:29;95389.56;;;4.55;94.54
20105;BME280;10212;42.714;23.310;2024-03-08T07:45:31;95389.63;;;4.72;92.95
20105;BME280;10212;42.714;23.310;2024-03-08T07:55:31;95390.97;;;5.17;91.44
20105;BME280;10212;42.714;23.310;2024-03-08T08:05:32;95380.38;;;5.77;89.94
20105;BME280;10212;42.714;23.310;2024-03-08T08:15:35;95374.84;;;5.97;88.07
20105;BME280;10212;42.714;23.310;2024-03-08T08:25:36;95383.25;;;5.91;84.89
20105;BME280;10212;42.714;23.310;2024-03-08T08:35:37;95388.66;;;5.56;81.66
20105;BME280;10212;42.714;23.310;2024-03-08T08:45:37;95384.66;;;5.37;85.83
20105;BME280;10212;42.714;23.310;2024-03-08T08:55:40;95377.22;;;5.09;82.60
20105;BME280;10212;42.714;23.310;2024-03-08T09:05:40;95367.81;;;5.66;82.60
20105;BME280;10212;42.714;23.310;2024-03-08T09:15:42;95363.91;;;6.27;78.60
20105;BME280;10212;42.714;23.310;2024-03-08T09:25:44;95364.63;;;6.99;77.12
20105;BME280;10212;42.714;23.310;2024-03-08T09:35:45;95358.63;;;7.22;76.72
20105;BME280;10212;42.714;23.310;2024-03-08T09:45:48;95365.28;;;7.94;72.97
20105;BME280;10212;42.714;23.310;2024-03-08T09:55:49;95367.06;;;7.40;72.20
20105;BME280;10212;42.714;23.310;2024-03-08T10:05:50;95364.63;;;7.23;73.71
20105;BME280;10212;42.714;23.310;2024-03-08T10:15:50;95361.59;;;8.03;68.59
20105;BME280;10212;42.714;23.310;2024-03-08T10:25:51;95355.63;;;7.34;70.28
20105;BME280;10212;42.714;23.310;2024-03-08T10:35:52;95352.53;;;7.84;66.73
20105;BME280;10212;42.714;23.310;2024-03-08T10:46:06;95344.09;;;8.12;67.58
20105;BME280;10212;42.714;23.310;2024-03-08T10:56:10;95335.00;;;8.53;63.96
20105;BME280;10212;42.714;23.310;2024-03-08T11:06:18;95331.41;;;8.54;66.47
20105;BME280;10212;42.714;23.310;2024-03-08T11:26:26;95315.81;;;8.17;64.84
20105;BME280;10212;42.714;23.310;2024-03-08T11:36:27;95293.88;;;8.79;61.10
20105;BME280;10212;42.714;23.310;2024-03-08T11:46:27;95293.75;;;8.87;63.55
20105;BME280;10212;42.714;23.310;2024-03-08T11:56:28;95299.44;;;8.02;65.08
20105;BME280;10212;42.714;23.310;2024-03-08T12:06:36;95297.03;;;8.37;64.32
20105;BME280;10212;42.714;23.310;2024-03-08T12:16:39;95291.22;;;8.35;65.05
20105;BME280;10212;42.714;23.310;2024-03-08T12:26:39;95283.34;;;7.46;67.94
20105;BME280;10212;42.714;23.310;2024-03-08T12:36:50;95275.09;;;7.12;71.24
20105;BME280;10212;42.714;23.310;2024-03-08T12:46:53;95272.81;;;6.94;71.63
20105;BME280;10212;42.714;23.310;2024-03-08T12:56:53;95260.78;;;6.78;70.69
20105;BME280;10212;42.714;23.310;2024-03-08T13:06:54;95260.94;;;6.99;70.00
20105;BME280;10212;42.714;23.310;2024-03-08T13:16:55;95264.53;;;6.75;70.74
20105;BME280;10212;42.714;23.310;2024-03-08T13:26:57;95261.31;;;6.73;70.67
20105;BME280;10212;42.714;23.310;2024-03-08T13:36:59;95258.06;;;6.94;69.56
20105;BME280;10212;42.714;23.310;2024-03-08T13:47:00;95258.38;;;6.76;69.40
20105;BME280;10212;42.714;23.310;2024-03-08T13:57:04;95258.09;;;6.47;71.80
20105;BME280;10212;42.714;23.310;2024-03-08T14:07:05;95257.44;;;6.69;71.97
20105;BME280;10212;42.714;23.310;2024-03-08T14:17:08;95257.69;;;6.59;71.79
20105;BME280;10212;42.714;23.310;2024-03-08T14:27:11;95258.53;;;6.74;72.09
20105;BME280;10212;42.714;23.310;2024-03-08T14:37:12;95267.53;;;6.63;72.56
20105;BME280;10212;42.714;23.310;2024-03-08T14:47:14;95261.31;;;6.26;72.12
20105;BME280;10212;42.714;23.310;2024-03-08T14:57:14;95254.59;;;6.40;74.34
20105;BME280;10212;42.714;23.310;2024-03-08T15:07:15;95270.69;;;6.27;74.90
20105;BME280;10212;42.714;23.310;2024-03-08T15:17:15;95272.22;;;5.64;77.90
20105;BME280;10212;42.714;23.310;2024-03-08T15:27:21;95283.81;;;5.28;78.34
20105;BME280;10212;42.714;23.310;2024-03-08T15:37:21;95278.66;;;4.87;81.64
20105;BME280;10212;42.714;23.310;2024-03-08T15:47:21;95283.84;;;4.95;80.69
20105;BME280;10212;42.714;23.310;2024-03-08T15:57:22;95290.31;;;4.49;82.29
20105;BME280;10212;42.714;23.310;2024-03-08T16:07:22;95304.94;;;4.24;83.08
20105;BME280;10212;42.714;23.310;2024-03-08T16:17:23;95300.25;;;4.19;84.96
20105;BME280;10212;42.714;23.310;2024-03-08T16:27:23;95327.97;;;4.08;86.47
20105;BME280;10212;42.714;23.310;2024-03-08T16:37:24;95325.66;;;4.05;85.88
20105;BME280;10212;42.714;23.310;2024-03-08T16:47:28;95337.88;;;3.86;84.73
20105;BME280;10212;42.714;23.310;2024-03-08T16:57:28;95355.47;;;3.65;85.85
20105;BME280;10212;42.714;23.310;2024-03-08T17:07:32;95359.41;;;3.77;86.23
20105;BME280;10212;42.714;23.310;2024-03-08T17:17:33;95361.03;;;3.78;85.63
20105;BME280;10212;42.714;23.310;2024-03-08T17:27:33;95357.81;;;3.76;86.59
20105;BME280;10212;42.714;23.310;2024-03-08T17:37:36;95360.63;;;3.65;86.16
20105;BME280;10212;42.714;23.310;2024-03-08T17:47:37;95355.97;;;3.68;86.02
20105;BME280;10212;42.714;23.310;2024-03-08T17:57:38;95372.59;;;3.66;87.01
20105;BME280;10212;42.714;23.310;2024-03-08T18:07:40;95377.63;;;3.76;87.63
20105;BME280;10212;42.714;23.310;2024-03-08T18:17:41;95371.97;;;3.72;88.80
20105;BME280;10212;42.714;23.310;2024-03-08T18:27:41;95367.16;;;3.77;88.74
20105;BME280;10212;42.714;23.310;2024-03-08T18:37:42;95370.44;;;3.61;89.96
20105;BME280;10212;42.714;23.310;2024-03-08T18:47:48;95376.59;;;3.42;91.58
20105;BME280;10212;42.714;23.310;2024-03-08T18:57:48;95380.69;;;3.26;92.94
20105;BME280;10212;42.714;23.310;2024-03-08T19:07:51;95378.00;;;3.09;94.15
20105;BME280;10212;42.714;23.310;2024-03-08T19:17:53;95383.44;;;3.06;95.27
20105;BME280;10212;42.714;23.310;2024-03-08T19:28:01;95380.22;;;3.04;96.38
20105;BME280;10212;42.714;23.310;2024-03-08T19:38:01;95391.16;;;3.24;96.17
20105;BME280;10212;42.714;23.310;2024-03-08T19:48:03;95402.94;;;3.27;95.72
20105;BME280;10212;42.714;23.310;2024-03-08T19:58:09;95408.84;;;3.19;95.92
20105;BME280;10212;42.714;23.310;2024-03-08T20:08:10;95411.69;;;2.98;97.29
20105;BME280;10212;42.714;23.310;2024-03-08T20:18:14;95413.47;;;2.79;98.33
20105;BME280;10212;42.714;23.310;2024-03-08T20:28:18;95420.81;;;2.74;96.40
20105;BME280;10212;42.714;23.310;2024-03-08T20:38:18;95421.78;;;2.45;96.85
20105;BME280;10212;42.714;23.310;2024-03-08T20:48:22;95414.41;;;2.32;98.21
20105;BME280;10212;42.714;23.310;2024-03-08T20:58:23;95421.41;;;2.11;99.17
20105;BME280;10212;42.714;23.310;2024-03-08T21:08:26;95419.28;;;1.97;99.41
20105;BME280;10212;42.714;23.310;2024-03-08T21:18:26;95423.25;;;1.81;100.00
20105;BME280;10212;42.714;23.310;2024-03-08T21:28:28;95419.78;;;1.62;100.00
20105;BME280;10212;42.714;23.310;2024-03-08T21:38:29;95415.56;;;1.61;100.00
20105;BME280;10212;42.714;23.310;2024-03-08T21:48:30;95408.81;;;1.60;100.00
20105;BME280;10212;42.714;23.310;2024-03-08T21:58:30;95404.75;;;1.58;100.00
20105;BME280;10212;42.714;23.310;2024-03-08T22:08:32;95398.81;;;1.47;100.00
20105;BME280;10212;42.714;23.310;2024-03-08T22:18:33;95388.16;;;1.52;100.00
20105;BME280;10212;42.714;23.310;2024-03-08T22:28:36;95393.78;;;1.65;100.00
20105;BME280;10212;42.714;23.310;2024-03-08T22:38:36;95401.41;;;1.57;100.00
20105;BME280;10212;42.714;23.310;2024-03-08T22:48:38;95402.09;;;1.39;100.00
20105;BME280;10212;42.714;23.310;2024-03-08T22:58:39;95398.84;;;1.37;100.00
20105;BME280;10212;42.714;23.310;2024-03-08T23:08:42;95398.03;;;1.37;100.00
20105;BME280;10212;42.714;23.310;2024-03-08T23:18:45;95399.69;;;0.98;100.00
20105;BME280;10212;42.714;23.310;2024-03-08T23:28:45;95404.28;;;1.14;100.00
20105;BME280;10212;42.714;23.310;2024-03-08T23:38:47;95403.19;;;1.17;100.00
20105;BME280;10212;42.714;23.310;2024-03-08T23:48:50;95396.16;;;1.39;100.00
20105;BME280;10212;42.714;23.310;2024-03-08T23:58:51;95402.78;;;1.41;100.00
